NGS weather

Nagasaki Airport
Nagasaki, Nagasaki Prefecture, Japan

Public forecast

Using degrees Celsius for public forecast. Weather courtesy of forecast.io.

Current aviation weather report (METAR) for Nagasaki Airport

Retrieved 2019/11/20 02:00 UTC (55 minutes ago):

RJFU 200200Z 35013KT 9999 FEW040 14/03 Q1027

Aviation forecast (TAF) for Nagasaki Airport

Retrieved 2019-11-20 00:30 UTC (2 hours ago):

TAF RJFU 192305Z 2000/2106 35014KT 9999 FEW045 BECMG 2012/2015 06007KT BECMG 2103/2106 29005KT